Tiempo atmosférico en la estación meteorológica de Calvià, Son Vic Nou, Illes Balears (35 m.)



Fecha
DESCASC
Temp. máxima en grados centígrados (hora)
DESCASC
Temp. mínima en grados centígrados (hora)
DESCASC
Temp. media en grados centígrados
DESCASC
Racha de viento máxima en m/sg (hora)
DESCASC
Velocidad máxima media en intervalos de 10 minutos(hora)
DESCASC
Precipitaciones diarias en mm
DESCASC
Precipitaciones de 00:00 a 06:00 en mm
DESCASC
Precipitaciones de 06:00 a 12:00 en mm
DESCASC
Precipitaciones de 12:00 a 18:00 en mm
DESCASC
Precipitaciones de 18:00 a 24:00 en mm
DESCASC

Gráficas

Temp. máximas Temp. mínimas Temp. medias Precipitaciones Rachas de viento máximas Velocidades máximas media en intervalos de 10 minutos

Datos horarios

Fecha y hora oficial Temperatura (ºC) Velocidad del viento (km/h) Dirección del viento Racha (km/h) Dirección de racha Precipitación (mm) Presión (hPa) Tendencia (hPa) Humedad (%)
2019-09-18 23:00:00 20.5 0 Calma 3 Este 0 -- -- 87
2019-09-18 22:00:00 21.4 0 Calma 5 Norte 0 -- -- 84
2019-09-18 21:00:00 22.5 3 Norte 5 Norte 0 -- -- 80
2019-09-18 20:00:00 24.6 2 Nordeste 8 Sudoeste 0 -- -- 72
2019-09-18 19:00:00 26.5 5 Sur 14 Sur 0 -- -- 67
2019-09-18 18:00:00 27.8 10 Sur 15 Sudoeste 0 -- -- 60
2019-09-18 17:00:00 28.6 9 Sur 18 Sur 0 -- -- 55
2019-09-18 16:00:00 28.3 10 Sur 20 Sur 0 -- -- 58
2019-09-18 15:00:00 28.1 7 Sudoeste 17 Sudoeste 0 -- -- 65
2019-09-18 14:00:00 26.1 10 Sudoeste 20 Sudoeste 0 -- -- 74
2019-09-18 13:00:00 25.8 10 Sudoeste 22 Sudoeste 0 -- -- 77
2019-09-18 12:00:00 26.5 11 Sur 23 Sudeste 0 -- -- 72
2019-09-18 11:00:00 26.3 10 Sudeste 18 Sudeste 0 -- -- 70
2019-09-18 10:00:00 25.5 0 Calma 5 Este 0 -- -- 76
2019-09-18 09:00:00 20.7 3 Nordeste 8 Sur 0 -- -- 92
2019-09-18 08:00:00 16.6 3 Nordeste 8 Este 0 -- -- 95
2019-09-18 07:00:00 17.1 4 Nordeste 8 Este 0 -- -- 95
2019-09-18 06:00:00 17.7 4 Este 8 Este 0 -- -- 96
2019-09-18 05:00:00 18 3 Nordeste 7 Este 0 -- -- 95
2019-09-18 04:00:00 18.8 3 Norte 9 Este 0 -- -- 94
2019-09-18 03:00:00 19.6 2 Nordeste 6 Nordeste 0 -- -- 93
2019-09-18 02:00:00 20.5 0 Calma 8 Este 0 -- -- 92
2019-09-18 01:00:00 22 5 Noroeste 13 Noroeste 0 -- -- 92
2019-09-18 00:00:00 20.6 0 Calma 5 Nordeste 0 -- -- 91
2019-09-17 23:00:00 21.1 3 Este 5 Nordeste 0 -- -- 89
2019-09-17 22:00:00 21.7 0 Calma 5 Norte 0 -- -- 86
2019-09-17 21:00:00 22.9 0 Calma 9 Sudoeste 0 -- -- 80
2019-09-15 18:00:00 -- -- -- -- -- -- -- -- --
2019-09-15 17:00:00 30.7 18 Este 35 Sudeste 0 -- -- 54
2019-09-15 16:00:00 31.1 17 Sudeste 39 Sudeste 0 -- -- 54
2019-09-15 15:00:00 31.2 21 Sudeste 40 Sudeste 0 -- -- 54
2019-09-15 14:00:00 30.9 18 Sudeste 35 Este 0 -- -- 53
2019-09-15 13:00:00 30.3 14 Este 32 Este 0 -- -- 55
2019-09-15 12:00:00 28.9 14 Este 41 Nordeste 0 -- -- 66
2019-09-15 11:00:00 27.6 17 Este 35 Este 0 -- -- 69
2019-09-15 10:00:00 26.4 15 Nordeste 34 Este 0 -- -- 75
2019-09-15 09:00:00 25.4 11 Nordeste 34 Este 0 -- -- 79
2019-09-15 08:00:00 24.2 7 Nordeste 25 Nordeste 0 -- -- 80
2019-09-15 07:00:00 23.9 10 Nordeste 26 Nordeste 0 -- -- 80
2019-09-15 06:00:00 25 5 Nordeste 22 Nordeste 0 -- -- 70
2019-09-15 05:00:00 25.3 6 Nordeste 19 Nordeste 0 -- -- 68
2019-09-15 04:00:00 24.5 9 Norte 16 Norte 0 -- -- 72
2019-09-15 03:00:00 24.5 6 Nordeste 23 Nordeste 0 -- -- 75
2019-09-15 02:00:00 23.7 4 Nordeste 25 Este 0 -- -- 79
2019-09-15 01:00:00 24.3 8 Nordeste 35 Norte 0 -- -- 77
2019-09-15 00:00:00 24.3 10 Nordeste 33 Este 0 -- -- 74
2019-09-14 23:00:00 24.6 14 Nordeste 24 Nordeste 0 -- -- 70
2019-09-14 22:00:00 25.1 10 Nordeste 25 Nordeste 0 -- -- 65
2019-09-14 21:00:00 25 14 Nordeste 32 Nordeste 0 -- -- 72
2019-09-14 20:00:00 25.5 18 Nordeste 32 Este 0 -- -- 74
2019-09-14 19:00:00 27.6 10 Este 28 Sudeste 0 -- -- 65
2019-09-14 18:00:00 30 12 Este 31 Este 0 -- -- 53
2019-09-14 17:00:00 30.6 8 Este 34 Este 0 -- -- 53
2019-09-14 16:00:00 30.9 12 Este 31 Este 0 -- -- 47
2019-09-14 15:00:00 30.6 14 Este 30 Sudeste 0 -- -- 40
2019-09-14 14:00:00 29.9 12 Este 30 Este 0 -- -- 48
2019-09-14 13:00:00 28.9 13 Este 30 Sudeste 0 -- -- 53
2019-09-14 12:00:00 28.1 10 Nordeste 30 Nordeste 0 -- -- 59
2019-09-14 11:00:00 27 11 Este 35 Este 0 -- -- 55
2019-09-14 10:00:00 26.9 13 Nordeste 29 Nordeste 0 -- -- 48
2019-09-14 09:00:00 25.2 14 Nordeste 28 Nordeste 0 -- -- 49
2019-09-14 08:00:00 24.5 14 Nordeste 31 Norte 0 -- -- 44
2019-09-14 07:00:00 24.2 14 Nordeste 32 Norte 0 -- -- 48
2019-09-14 06:00:00 -- -- -- -- -- -- -- -- --
2019-09-14 05:00:00 23.6 10 Nordeste 34 Nordeste 0 -- -- 50
2019-09-14 04:00:00 22.1 6 Este 20 Este 0 -- -- 52
2019-09-14 03:00:00 22.9 15 Nordeste 33 Norte 0 -- -- 51
2019-09-14 02:00:00 20.3 10 Norte 27 Nordeste 0.4 -- -- 75
2019-09-14 01:00:00 19.7 7 Oeste 35 Nordeste 3.6 -- -- 85
2019-09-14 00:00:00 19.8 5 Sur 28 Norte 1.6 -- -- 81
2019-09-13 23:00:00 20.7 10 Norte 58 Noroeste 4.6 -- -- 80
2019-09-13 22:00:00 24.7 15 Nordeste 27 Este 0 -- -- 56
2019-09-13 21:00:00 24 10 Nordeste 26 Nordeste 0 -- -- 73
2019-09-13 20:00:00 24.1 11 Nordeste 28 Nordeste 0 -- -- 77
2019-09-13 19:00:00 24.4 12 Nordeste 28 Nordeste 0 -- -- 75
2019-09-13 18:00:00 25.1 9 Nordeste 29 Nordeste 0 -- -- 67
2019-09-13 17:00:00 26.8 13 Este 30 Este 0 -- -- 58
2019-09-13 16:00:00 25.3 5 Este 17 Nordeste 0 -- -- 68
2019-09-13 15:00:00 25.3 9 Este 23 Nordeste 0 -- -- 65
2019-09-13 14:00:00 22.7 10 Norte 27 Norte 0.8 -- -- 77
2019-09-13 13:00:00 22.2 14 Norte 23 Noroeste 0.2 -- -- 82
2019-09-13 12:00:00 20.5 12 Nordeste 30 Norte 1.4 -- -- 84
2019-09-13 11:00:00 19.9 6 Nordeste 30 Norte 0.2 -- -- 85
2019-09-13 10:00:00 20 12 Norte 54 Sur 5.8 -- -- 86
2019-09-13 09:00:00 22.9 11 Nordeste 29 Nordeste 0.6 -- -- 69
2019-09-13 08:00:00 23.9 5 Nordeste 22 Nordeste 0 -- -- 67
2019-09-13 07:00:00 24 11 Nordeste 32 Nordeste 0 -- -- 71
2019-09-13 06:00:00 21.7 12 Norte 33 Nordeste 1.2 -- -- 84
2019-09-13 05:00:00 21.9 15 Nordeste 44 Nordeste 1.4 -- -- 82
2019-09-13 04:00:00 23 14 Nordeste 33 Este 0 -- -- 76
2019-09-13 03:00:00 22.6 11 Nordeste 26 Nordeste 0 -- -- 76
2019-09-13 02:00:00 22.2 6 Nordeste 12 Este 0 -- -- 69
2019-09-13 01:00:00 19.7 2 Nordeste 7 Nordeste 0 -- -- 67
2019-09-13 00:00:00 22.2 7 Nordeste 19 Norte 0 -- -- 57
2019-09-12 23:00:00 23.1 9 Nordeste 19 Nordeste 0 -- -- 58
2019-09-12 22:00:00 23.3 9 Nordeste 20 Nordeste 0 -- -- 53
2019-09-12 21:00:00 22.5 6 Nordeste 22 Norte 0 -- -- 53
2019-09-12 20:00:00 24.5 11 Nordeste 24 Nordeste 0 -- -- 46
2019-09-12 19:00:00 25.9 12 Este 28 Este 0 -- -- 42
2019-09-12 18:00:00 27.6 13 Este 31 Este 0 -- -- 40
2019-09-12 17:00:00 28 15 Este 38 Nordeste 0 -- -- 40
2019-09-12 16:00:00 28.3 14 Este 36 Este 0 -- -- 43
2019-09-12 15:00:00 28.3 19 Este 42 Este 0 -- -- 42
2019-09-12 14:00:00 28 17 Nordeste 44 Este 0 -- -- 45
2019-09-12 13:00:00 27.8 17 Nordeste 39 Este 0 -- -- 45
2019-09-12 12:00:00 27 17 Este 47 Este 0 -- -- 46
2019-09-12 11:00:00 26.1 21 Este 47 Este 0 -- -- 49
2019-09-12 10:00:00 24.9 17 Nordeste 45 Este 0 -- -- 56
2019-09-12 09:00:00 22.2 21 Nordeste 49 Este 0.2 -- -- 76
2019-09-12 08:00:00 23.1 23 Nordeste 46 Este 0 -- -- 69
2019-09-12 07:00:00 23.3 20 Nordeste 42 Nordeste 0 -- -- 61
2019-09-12 06:00:00 23 15 Nordeste 41 Este 0 -- -- 65
2019-09-12 05:00:00 22.9 18 Nordeste 39 Nordeste 0 -- -- 66
2019-09-12 04:00:00 22.6 17 Nordeste 45 Este 0 -- -- 70
2019-09-12 03:00:00 22.9 14 Nordeste 40 Nordeste 0 -- -- 73
2019-09-12 02:00:00 23.2 16 Nordeste 50 Este 0 -- -- 73
2019-09-12 01:00:00 23.3 21 Nordeste 49 Este 0 -- -- 72
2019-09-12 00:00:00 23.6 20 Nordeste 50 Nordeste 0 -- -- 69
2019-09-11 23:00:00 23.7 18 Nordeste 38 Este 0 -- -- 67
2019-09-11 22:00:00 23.1 12 Nordeste 22 Norte 0 -- -- 68
2019-09-11 21:00:00 23.3 8 Nordeste 31 Este 0 -- -- 62
2019-09-11 20:00:00 23.2 6 Nordeste 21 Nordeste 0 -- -- 61
2019-09-11 19:00:00 23.9 10 Este 29 Este 0 -- -- 58
2019-09-11 18:00:00 25 9 Este 27 Este 0 -- -- 48
2019-09-11 17:00:00 25.2 8 Sudoeste 17 Sudoeste 0 -- -- 54
2019-09-11 16:00:00 24.3 12 Sudoeste 22 Sudoeste 0 -- -- 55
2019-09-11 15:00:00 27 10 Sur 24 Sur 0 -- -- 44
2019-09-11 14:00:00 25.7 13 Sudeste 26 Sudeste 0 -- -- 47
2019-09-11 13:00:00 24.8 5 Este 24 Sudeste 0 -- -- 49
2019-09-11 12:00:00 23.5 11 Sudeste 21 Sudeste 0 -- -- 54
2019-09-11 11:00:00 22.9 6 Este 13 Este 0 -- -- 63
2019-09-11 10:00:00 21.2 3 Sudeste 8 Nordeste 0 -- -- 77
2019-09-11 09:00:00 17.8 2 Este 6 Este 0 -- -- 90
2019-09-11 08:00:00 13 4 Este 9 Este 0 -- -- 93
2019-09-11 07:00:00 13.5 5 Nordeste 10 Este 0 -- -- 91
2019-09-11 06:00:00 13.9 8 Este 33 Noroeste 0 -- -- 88
2019-09-11 05:00:00 15.2 8 Noroeste 32 Oeste 0.2 -- -- 90
2019-09-11 04:00:00 14.9 18 Oeste 45 Oeste 1.6 -- -- 91
2019-09-11 03:00:00 16 10 Norte 28 Norte 24.8 -- -- 90
2019-09-11 02:00:00 17.8 11 Norte 34 Norte 3.6 -- -- 85
2019-09-11 01:00:00 18.4 13 Nordeste 35 Norte 0 -- -- 76
2019-09-11 00:00:00 18.6 20 Nordeste 40 Nordeste 0 -- -- 75
2019-09-10 23:00:00 18.8 19 Nordeste 39 Nordeste 0 -- -- 70
2019-09-10 22:00:00 18.1 9 Norte 38 Norte 0 -- -- 72
2019-09-10 21:00:00 18 14 Norte 27 Norte 0 -- -- 68
2019-09-10 20:00:00 17.6 5 Norte 36 Nordeste 0 -- -- 72
2019-09-10 19:00:00 17.6 17 Norte 55 Norte 0.8 -- -- 80
2019-09-10 18:00:00 17.6 24 Nordeste 53 Noroeste 1.8 -- -- 85
2019-09-10 17:00:00 18.8 18 Norte 47 Nordeste 6.2 -- -- 84
2019-09-10 16:00:00 19.2 23 Norte 62 Norte 0.4 -- -- 74
2019-09-10 15:00:00 26.8 18 Norte 38 Nordeste 0 -- -- 52
2019-09-10 14:00:00 29.4 8 Norte 21 Noroeste 0 -- -- 42
2019-09-10 13:00:00 28 9 Norte 30 Norte 0 -- -- 49
2019-09-10 12:00:00 27.3 18 Norte 35 Norte 0 -- -- 54
2019-09-10 11:00:00 25.9 19 Norte 35 Noroeste 0 -- -- 59
2019-09-10 10:00:00 23.8 26 Norte 42 Norte 0 -- -- 73
2019-09-10 09:00:00 25.5 18 Sudoeste 40 Sudoeste 0 -- -- 83
2019-09-10 08:00:00 24.5 16 Sudoeste 38 Sudoeste 0 -- -- 85
2019-09-10 07:00:00 24.4 15 Sudoeste 39 Sur 0 -- -- 84
2019-09-10 06:00:00 24.2 15 Sur 33 Sudoeste 0 -- -- 83
2019-09-10 05:00:00 24.1 17 Sur 28 Sudoeste 0 -- -- 82
2019-09-10 04:00:00 23.8 13 Sur 31 Sur 0 -- -- 80
2019-09-10 03:00:00 23.8 12 Sur 26 Sur 0 -- -- 78
2019-09-10 02:00:00 23.9 12 Sur 29 Sudoeste 0 -- -- 78
2019-09-10 01:00:00 23.8 13 Sur 23 Sur 0 -- -- 77
2019-09-10 00:00:00 23.7 10 Sur 19 Sur 0 -- -- 77
2019-09-09 23:00:00 23.2 9 Sur 18 Sur 0 -- -- 76
2019-09-09 22:00:00 22.4 6 Sudeste 10 Sudeste 0 -- -- 74
2019-09-09 21:00:00 23.2 5 Sudeste 18 Sur 0 -- -- 70
2019-09-09 20:00:00 24.1 11 Sur 22 Sur 0 -- -- 68
2019-09-09 19:00:00 25.4 12 Sur 29 Sur 0 -- -- 61
2019-09-09 18:00:00 26.5 14 Sudoeste 26 Sudoeste 0 -- -- 58
2019-09-09 17:00:00 26.6 14 Sur 27 Sudoeste 0 -- -- 58
2019-09-09 16:00:00 26.9 14 Sudoeste 30 Sur 0 -- -- 60
2019-09-09 15:00:00 26.3 16 Sudoeste 30 Sur 0 -- -- 63
2019-09-09 14:00:00 27.3 17 Sur 27 Sur 0 -- -- 59
2019-09-09 13:00:00 26.9 13 Sudoeste 24 Sur 0 -- -- 62
2019-09-09 12:00:00 25.8 12 Sur 24 Sur 0 -- -- 63
2019-09-09 11:00:00 25.6 9 Sur 22 Sur 0 -- -- 64
2019-09-09 10:00:00 25.7 5 Sur 15 Sur 0 -- -- 68
2019-09-09 09:00:00 22.8 0 Calma 6 Este 0 -- -- 85
2019-09-09 08:00:00 16.6 3 Nordeste 9 Este 0 -- -- 90
2019-09-09 07:00:00 16.3 3 Nordeste 8 Este 0 -- -- 89
2019-09-09 06:00:00 15.9 3 Nordeste 8 Este 0 -- -- 89
2019-09-09 05:00:00 16 2 Norte 6 Este 0 -- -- 87
2019-09-09 04:00:00 16.4 2 Nordeste 7 Este 0 -- -- 86
2019-09-09 03:00:00 17.1 2 Este 5 Norte 0 -- -- 85
2019-09-09 02:00:00 17.2 3 Este 6 Este 0 -- -- 83
2019-09-09 01:00:00 17.6 0 Calma 6 Este 0 -- -- 81
2019-09-09 00:00:00 17.8 2 Este 5 Este 0 -- -- 79
2019-09-08 23:00:00 18.9 2 Nordeste 4 Este 0 -- -- 75
2019-09-08 22:00:00 19.7 2 Nordeste 6 Nordeste 0 -- -- 71
2019-09-08 21:00:00 21 3 Norte 5 Norte 0 -- -- 67
2019-09-08 20:00:00 23.6 2 Sur 12 Sudoeste 0 -- -- 60
2019-09-08 19:00:00 24.5 9 Sudoeste 18 Sudoeste 0 -- -- 56
2019-09-08 18:00:00 26.3 11 Sur 21 Sudoeste 0 -- -- 48
2019-09-08 17:00:00 26.3 10 Sudoeste 23 Sudoeste 0 -- -- 47
2019-09-08 16:00:00 26.2 12 Sudoeste 22 Sudoeste 0 -- -- 49
2019-09-08 15:00:00 26.1 14 Sudoeste 21 Sudoeste 0 -- -- 43
2019-09-08 14:00:00 25.4 8 Sur 15 Sur 0 -- -- 47
2019-09-08 13:00:00 24.7 5 Sudeste 10 Este 0 -- -- 44
2019-09-08 12:00:00 24 4 Este 26 Sudeste 0 -- -- 57
2019-09-08 11:00:00 25 9 Sur 18 Sur 0 -- -- 60
2019-09-08 10:00:00 24 4 Nordeste 12 Este 0 -- -- 62
2019-09-08 09:00:00 21.8 3 Norte 9 Este 0 -- -- 77
2019-09-08 08:00:00 15.8 3 Norte 7 Este 0 -- -- 87
2019-09-08 07:00:00 15.4 0 Calma 6 Norte 0 -- -- 86
2019-09-08 06:00:00 16.2 3 Nordeste 9 Norte 0 -- -- 83
2019-09-08 05:00:00 17.3 0 Calma 12 Norte 0 -- -- 81
2019-09-08 04:00:00 17.6 3 Nordeste 5 Nordeste 0 -- -- 81
2019-09-08 03:00:00 19 3 Norte 10 Norte 0 -- -- 79
2019-09-08 02:00:00 18.6 2 Nordeste 5 Nordeste 0 -- -- 80
2019-09-08 01:00:00 18.6 0 Calma 5 Norte 0 -- -- 79
2019-09-08 00:00:00 19 2 Norte 7 Norte 0 -- -- 76
2019-09-07 23:00:00 19.7 2 Nordeste 8 Norte 0 -- -- 74
2019-09-07 22:00:00 20.4 2 Norte 5 Norte 0 -- -- 70
2019-09-07 21:00:00 22.1 2 Este 13 Sudoeste 0 -- -- 64
2019-09-07 20:00:00 23.6 9 Sudoeste 15 Sur 0 -- -- 60
2019-09-07 19:00:00 24.4 10 Oeste 18 Oeste 0 -- -- 59
2019-09-07 18:00:00 25.8 12 Sudoeste 20 Sudoeste 0 -- -- 54
2019-09-07 17:00:00 26.5 10 Sudoeste 23 Sudoeste 0 -- -- 50
2019-09-07 16:00:00 26.6 15 Sudoeste 31 Oeste 0 -- -- 51
2019-09-07 15:00:00 25.3 14 Sudoeste 31 Sudoeste 0 -- -- 53
2019-09-07 14:00:00 27.6 10 Sur 23 Sudeste 0 -- -- 42
2019-09-07 13:00:00 25.8 10 Sudeste 24 Sudeste 0 -- -- 46
2019-09-07 12:00:00 25.2 9 Sudeste 18 Sur 0 -- -- 53
2019-09-07 11:00:00 24.1 8 Sudeste 16 Sudeste 0 -- -- 60
2019-09-07 10:00:00 22.1 5 Este 13 Nordeste 0 -- -- 68
2019-09-07 09:00:00 22.7 5 Nordeste 10 Nordeste 0 -- -- 75
2019-09-07 08:00:00 16.5 3 Nordeste 10 Nordeste 0 -- -- 86
2019-09-07 07:00:00 16 2 Nordeste 5 Nordeste 0 -- -- 85
2019-09-07 06:00:00 16.4 2 Nordeste 7 Norte 0 -- -- 84
2019-09-07 05:00:00 16.8 4 Norte 10 Norte 0 -- -- 84
2019-09-07 04:00:00 17 3 Nordeste 9 Norte 0 -- -- 82
2019-09-07 03:00:00 17.6 3 Norte 8 Norte 0 -- -- 81
2019-09-07 02:00:00 17.9 3 Norte 8 Norte 0 -- -- 80
2019-09-07 01:00:00 18.2 2 Nordeste 7 Norte 0 -- -- 79
2019-09-07 00:00:00 19.2 3 Norte 10 Nordeste 0 -- -- 78
2019-09-06 23:00:00 19.8 2 Norte 8 Norte 0 -- -- 76
2019-09-06 22:00:00 19.8 0 Calma 5 Norte 0 -- -- 73
2019-09-06 21:00:00 21.4 3 Este 6 Sur 0 -- -- 68
2019-09-06 20:00:00 23.2 3 Sur 10 Sudeste 0 -- -- 63
2019-09-06 19:00:00 23.3 7 Sur 15 Sur 0 -- -- 62
2019-09-06 18:00:00 23.9 7 Sur 19 Este 0 -- -- 60
2019-09-06 17:00:00 25.9 4 Sudeste 15 Sudeste 0 -- -- 54
2019-09-06 16:00:00 24.5 8 Sudeste 18 Sudeste 0 -- -- 59
2019-09-06 15:00:00 24.9 5 Sur 22 Sur 0 -- -- 56
2019-09-06 14:00:00 24.9 9 Sudoeste 22 Sudoeste 0 -- -- 53
2019-09-06 13:00:00 25.5 7 Sudeste 24 Sudeste 0 -- -- 49
2019-09-06 12:00:00 25.8 12 Sudeste 26 Sudeste 0 -- -- 48
2019-09-06 11:00:00 25.1 13 Sudeste 28 Sudeste 0 -- -- 53
2019-09-06 10:00:00 24.6 10 Sudeste 20 Sudeste 0 -- -- 55
2019-09-06 09:00:00 21.8 0 Calma 5 Nordeste 0 -- -- 66
2019-09-06 08:00:00 20.4 0 Calma 9 Nordeste 0 -- -- 68
2019-09-06 07:00:00 20.8 3 Norte 11 Nordeste 0 -- -- 64
2019-09-06 06:00:00 19.3 3 Norte 8 Nordeste 0 -- -- 66
2019-09-06 05:00:00 20.6 3 Nordeste 15 Este 0 -- -- 60
2019-09-06 04:00:00 20.4 4 Nordeste 13 Este 0 -- -- 62
2019-09-06 03:00:00 22.1 4 Nordeste 14 Nordeste 0 -- -- 60
2019-09-06 02:00:00 21.9 4 Nordeste 14 Este 0 -- -- 65
2019-09-06 01:00:00 21.9 3 Nordeste 10 Nordeste 0 -- -- 70
2019-09-06 00:00:00 22.4 5 Nordeste 12 Norte 0 -- -- 70
2019-09-05 23:00:00 22.3 4 Nordeste 14 Norte 0 -- -- 71
2019-09-05 22:00:00 21.3 4 Nordeste 13 Este 0 -- -- 76
2019-09-05 21:00:00 21.5 6 Nordeste 14 Este 0 -- -- 76
2019-09-05 20:00:00 22.5 6 Este 19 Este 0 -- -- 73
2019-09-05 19:00:00 23 8 Nordeste 23 Nordeste 0 -- -- 71
2019-09-05 18:00:00 26.4 13 Sudoeste 24 Sudoeste 0 -- -- 61
2019-09-05 17:00:00 26.8 15 Sur 26 Sur 0 -- -- 60
2019-09-05 16:00:00 27.8 17 Sur 27 Sur 0 -- -- 58
2019-09-05 15:00:00 26.9 14 Sur 24 Sudoeste 0 -- -- 62
2019-09-05 14:00:00 27.2 3 Norte 22 Sur 0 -- -- 61
2019-09-05 13:00:00 28.4 12 Sudoeste 22 Sur 0 -- -- 61
2019-09-05 12:00:00 27 13 Sudoeste 21 Oeste 0 -- -- 66
2019-09-05 11:00:00 27 9 Sur 13 Sur 0 -- -- 65
2019-09-05 10:00:00 26.4 2 Noroeste 4 Noroeste 0 -- -- 74
2019-09-05 09:00:00 23.6 2 Norte 6 Este 0 -- -- 87
2019-09-05 08:00:00 18.5 0 Calma 9 Este 0 -- -- 92
2019-09-05 07:00:00 18 2 Este 4 Este 0 -- -- 91
2019-09-05 06:00:00 18.4 4 Nordeste 10 Este 0 -- -- 90
2019-09-05 05:00:00 18.7 3 Norte 9 Este 0 -- -- 89
2019-09-05 04:00:00 18.6 0 Calma 5 Este 0 -- -- 87
2019-09-05 03:00:00 18.8 3 Noroeste 6 Este 0 -- -- 84
2019-09-05 02:00:00 19.9 3 Norte 6 Norte 0 -- -- 80
2019-09-05 01:00:00 22.6 6 Norte 11 Norte 0 -- -- 72
2019-09-05 00:00:00 23.1 8 Norte 11 Norte 0 -- -- 74
2019-09-04 23:00:00 21.5 0 Calma 10 Norte 0 -- -- 75
2019-09-04 22:00:00 23.4 3 Nordeste 12 Norte 0 -- -- 67
2019-09-04 21:00:00 24.6 4 Norte 10 Norte 0 -- -- 63
2019-09-04 20:00:00 26.3 6 Norte 15 Noroeste 0 -- -- 56
2019-09-04 19:00:00 27.9 11 Noroeste 21 Norte 0 -- -- 50
2019-09-04 18:00:00 30.1 8 Noroeste 22 Noroeste 0 -- -- 48
2019-09-04 17:00:00 29.9 12 Oeste 29 Oeste 0 -- -- 49
2019-09-04 16:00:00 29.9 14 Oeste 24 Sudoeste 0 -- -- 42
2019-09-04 15:00:00 28.9 14 Sudoeste 22 Sudoeste 0 -- -- 47
2019-09-04 14:00:00 28.3 14 Sudoeste 24 Sudoeste 0 -- -- 52
2019-09-04 13:00:00 28 12 Sudoeste 19 Sudoeste 0 -- -- 56
2019-09-04 12:00:00 27.3 10 Sudoeste 18 Sudoeste 0 -- -- 58
2019-09-04 11:00:00 27.1 8 Sudoeste 14 Sudoeste 0 -- -- 60
2019-09-04 10:00:00 27.3 4 Sudoeste 8 Sur 0 -- -- 78
2019-09-04 09:00:00 22.8 0 Calma 7 Este 0 -- -- 91
2019-09-04 08:00:00 17.8 4 Este 8 Este 0 -- -- 94
2019-09-04 07:00:00 17.4 3 Este 8 Este 0 -- -- 94
2019-09-04 06:00:00 17.6 0 Calma 5 Noroeste 0 -- -- 94
2019-09-04 05:00:00 17.9 2 Este 6 Este 0 -- -- 93
2019-09-04 04:00:00 18.2 3 Este 7 Este 0 -- -- 92
2019-09-04 03:00:00 18.6 2 Nordeste 5 Este 0 -- -- 91
2019-09-04 02:00:00 19.2 3 Este 5 Este 0 -- -- 90
2019-09-04 01:00:00 20 0 Calma 5 Este 0 -- -- 89
2019-09-04 00:00:00 20.8 2 Este 5 Este 0 -- -- 87
2019-09-03 23:00:00 21.4 0 Calma 6 Norte 0 -- -- 85
2019-09-03 22:00:00 22.7 0 Calma 5 Noroeste 0 -- -- 81
2019-09-03 21:00:00 24.5 5 Oeste 18 Sudoeste 0 -- -- 76
2019-09-03 20:00:00 25.3 10 Sudoeste 22 Sudoeste 0 -- -- 73
2019-09-03 19:00:00 26.6 13 Sudoeste 30 Sudoeste 0 -- -- 67
2019-09-03 18:00:00 28.7 15 Oeste 32 Sudoeste 0 -- -- 58
2019-09-03 17:00:00 28.4 16 Sudoeste 28 Sudoeste 0 -- -- 62
2019-09-03 16:00:00 27.5 17 Sudoeste 31 Sudoeste 0 -- -- 64
2019-09-03 15:00:00 27.4 20 Sur 33 Sur 0 -- -- 64
2019-09-03 14:00:00 27.1 18 Sudoeste 28 Sudoeste 0 -- -- 65
2019-09-03 13:00:00 27.4 13 Sudoeste 22 Sur 0 -- -- 65
2019-09-03 12:00:00 26.7 10 Sudoeste 18 Sudoeste 0 -- -- 67
2019-09-03 11:00:00 26.1 5 Sur 12 Sur 0 -- -- 69
2019-09-03 10:00:00 26.5 3 Sudeste 8 Este 0 -- -- 73
2019-09-03 09:00:00 24.5 2 Norte 7 Noroeste 0 -- -- 89
2019-09-03 08:00:00 20.4 0 Calma 4 Este 0 -- -- 92
2019-09-03 07:00:00 19.5 0 Calma 6 Nordeste 0 -- -- 92
2019-09-03 06:00:00 19.7 0 Calma 5 Nordeste 0 -- -- 91
2019-09-03 05:00:00 19.5 3 Nordeste 6 Este 0 -- -- 90
2019-09-03 04:00:00 20.1 0 Calma 5 Nordeste 0 -- -- 88
2019-09-03 03:00:00 20.8 3 Nordeste 8 Norte 0 -- -- 87
2019-09-03 02:00:00 21.3 2 Nordeste 10 Norte 0 -- -- 87
2019-09-03 01:00:00 21.2 2 Nordeste 5 Norte 0 -- -- 87
2019-09-03 00:00:00 21.7 2 Este 6 Este 0 -- -- 85
2019-09-02 23:00:00 22.5 2 Nordeste 5 Nordeste 0 -- -- 83
2019-09-02 22:00:00 22.7 0 Calma 7 Norte 0 -- -- 81
2019-09-02 21:00:00 23.8 3 Norte 5 Noroeste 0 -- -- 75
2019-09-02 20:00:00 25.5 3 Sudoeste 14 Sudoeste 0 -- -- 69
2019-09-02 19:00:00 25.9 8 Sudoeste 21 Sur 0 -- -- 67
2019-09-02 18:00:00 26.8 10 Sudoeste 19 Sur 0 -- -- 60
2019-09-02 17:00:00 28.5 11 Sudoeste 21 Sudoeste 0 -- -- 58
2019-09-02 16:00:00 28.2 9 Sudoeste 23 Sudoeste 0 -- -- 61
2019-09-02 15:00:00 27.8 15 Sudoeste 30 Noroeste 0 -- -- 58
2019-09-02 14:00:00 29.5 9 Sudeste 21 Sudeste 0 -- -- 57
2019-09-02 13:00:00 27.2 9 Este 24 Sudeste 0 -- -- 68
2019-09-02 12:00:00 25.1 7 Nordeste 16 Nordeste 0 -- -- 86
2019-09-02 11:00:00 23 0 Calma 5 Este 0 -- -- 92
2019-09-02 10:00:00 21.7 0 Calma 8 Este 1.4 -- -- 92
2019-09-02 09:00:00 21.8 2 Este 12 Norte 4.6 -- -- 90
2019-09-02 08:00:00 22.3 7 Norte 14 Nordeste 1.4 -- -- 86
2019-09-02 07:00:00 24.1 3 Nordeste 13 Este 0 -- -- 79
2019-09-02 06:00:00 23.3 0 Calma 9 Norte 0 -- -- 79
2019-09-02 05:00:00 23.7 0 Calma 6 Norte 0 -- -- 78
2019-09-02 04:00:00 24.5 4 Norte 8 Nordeste 0 -- -- 74
2019-09-02 03:00:00 24.6 3 Nordeste 15 Norte 0 -- -- 76
2019-09-02 02:00:00 24.7 6 Nordeste 13 Este 0 -- -- 77
2019-09-02 01:00:00 24.1 3 Norte 6 Norte 0 -- -- 66
2019-09-02 00:00:00 25.6 0 Calma 13 Nordeste 0 -- -- 62
2019-09-01 23:00:00 24.9 3 Norte 10 Nordeste 0 -- -- 71
2019-09-01 22:00:00 25.7 0 Calma 5 Este 0 -- -- 77
2019-09-01 21:00:00 27 2 Norte 9 Nordeste 0 -- -- 73
2019-09-01 20:00:00 28.6 4 Sudeste 14 Sur 0 -- -- 65
2019-09-01 19:00:00 30.6 9 Sudoeste 19 Sur 0 -- -- 49
2019-09-01 18:00:00 33.2 10 Sudoeste 25 Sur 0 -- -- 40
2019-09-01 17:00:00 34.3 10 Sudoeste 25 Sur 0 -- -- 34
2019-09-01 16:00:00 36.3 11 Noroeste 23 Noroeste 0 -- -- 30
2019-09-01 15:00:00 35.3 13 Noroeste 28 Norte 0 -- -- 31
2019-09-01 14:00:00 34 16 Norte 29 Norte 0 -- -- 34
2019-09-01 13:00:00 33.3 14 Nordeste 24 Nordeste 0 -- -- 35
2019-09-01 12:00:00 32.8 8 Norte 18 Noroeste 0 -- -- 41
2019-09-01 11:00:00 31.2 5 Sur 13 Oeste 0 -- -- 49
2019-09-01 10:00:00 29.8 2 Sur 6 Oeste 0 -- -- 57
2019-09-01 09:00:00 25.5 4 Este 10 Este 0 -- -- 68
2019-09-01 08:00:00 20 4 Este 10 Este 0 -- -- 83
2019-09-01 07:00:00 18.7 3 Noroeste 9 Este 0 -- -- 83
2019-09-01 06:00:00 19.4 5 Este 8 Este 0 -- -- 81
2019-09-01 05:00:00 19.6 0 Calma 8 Este 0 -- -- 81
2019-09-01 04:00:00 20 3 Nordeste 7 Este 0 -- -- 80
2019-09-01 03:00:00 20.4 0 Calma 7 Norte 0 -- -- 77
2019-09-01 02:00:00 21.1 2 Norte 8 Norte 0 -- -- 73
2019-09-01 01:00:00 21.7 3 Norte 5 Este 0 -- -- 70
2019-09-01 00:00:00 23 0 Calma 8 Norte 0 -- -- 65
2019-08-31 23:00:00 23.5 3 Norte 12 Norte 0 -- -- 64
2019-08-31 22:00:00 25.1 3 Este 8 Norte 0 -- -- 59
2019-08-31 21:00:00 26.3 4 Norte 7 Nordeste 0 -- -- 61
2019-08-31 20:00:00 29.5 2 Nordeste 10 Sudoeste 0 -- -- 52
2019-08-31 19:00:00 30.8 6 Noroeste 25 Oeste 0 -- -- 49
2019-08-31 18:00:00 31.7 13 Oeste 26 Oeste 0 -- -- 47
2019-08-31 17:00:00 31.1 15 Oeste 27 Oeste 0 -- -- 48
2019-08-31 16:00:00 31.3 15 Sudoeste 24 Sudoeste 0 -- -- 55
2019-08-31 15:00:00 30.4 15 Sudoeste 25 Sur 0 -- -- 59
2019-08-31 14:00:00 29.4 17 Sur 25 Sudoeste 0 -- -- 63
2019-08-31 13:00:00 28.6 14 Sudoeste 23 Sudoeste 0 -- -- 67
2019-08-31 12:00:00 28.1 14 Sudoeste 22 Sur 0 -- -- 66
2019-08-31 11:00:00 29.1 8 Sudoeste 13 Sudoeste 0 -- -- 59
2019-08-31 10:00:00 28.6 3 Sudoeste 7 Sudoeste 0 -- -- 61
2019-08-31 09:00:00 25.8 0 Calma 6 Este 0 -- -- 77
2019-08-31 08:00:00 20.4 2 Este 8 Este 0 -- -- 90
2019-08-31 07:00:00 19.6 3 Este 9 Este 0 -- -- 90
2019-08-31 06:00:00 19.7 3 Nordeste 5 Este 0 -- -- 89
2019-08-31 05:00:00 20.1 5 Este 8 Este 0 -- -- 88
2019-08-31 04:00:00 20.4 3 Este 8 Este 0 -- -- 87
2019-08-31 03:00:00 21.1 4 Este 7 Este 0 -- -- 87
2019-08-31 02:00:00 21.6 2 Este 5 Norte 0 -- -- 86
2019-08-31 01:00:00 22.3 4 Este 5 Este 0 -- -- 83
2019-08-31 00:00:00 23.2 2 Nordeste 6 Noroeste 0 -- -- 80
2019-08-30 23:00:00 24.1 0 Calma 5 Norte 0 -- -- 75
2019-08-30 22:00:00 25.8 4 Nordeste 10 Este 0 -- -- 68
2019-08-30 21:00:00 27.5 5 Este 14 Este 0 -- -- 60
2019-08-30 20:00:00 29.8 7 Sudeste 14 Sudeste 0 -- -- 49
2019-08-30 19:00:00 31.2 9 Sur 17 Sudoeste 0 -- -- 45
2019-08-30 18:00:00 32.8 10 Sudoeste 21 Sudoeste 0 -- -- 42
2019-08-30 17:00:00 33.5 12 Sur 20 Sur 0 -- -- 42
2019-08-30 16:00:00 33.6 10 Sur 25 Sur 0 -- -- 42
2019-08-30 15:00:00 33.1 10 Sur 21 Sur 0 -- -- 46
2019-08-30 14:00:00 31.5 10 Sur 21 Sur 0 -- -- 53
2019-08-30 13:00:00 29 13 Sudoeste 22 Sudoeste 0 -- -- 63
2019-08-30 12:00:00 28.7 8 Sudoeste 18 Oeste 0 -- -- 66
2019-08-30 11:00:00 29.1 8 Sudoeste 15 Sudoeste 0 -- -- 63
2019-08-30 10:00:00 28.1 5 Sudoeste 9 Sudoeste 0 -- -- 69
2019-08-30 09:00:00 22.1 2 Norte 7 Norte 0 -- -- 88
2019-08-30 08:00:00 20.2 0 Calma 8 Este 0 -- -- 92
2019-08-30 07:00:00 20 3 Este 8 Norte 0 -- -- 92
2019-08-30 06:00:00 20.2 4 Norte 6 Norte 0 -- -- 92
2019-08-30 05:00:00 21 3 Este 6 Norte 0 -- -- 90
2019-08-30 04:00:00 21.8 0 Calma 8 Este 0 -- -- 90
2019-08-30 03:00:00 22.2 2 Sudoeste 8 Este 0 -- -- 90
2019-08-30 02:00:00 22.2 2 Este 6 Este 0 -- -- 89
2019-08-30 01:00:00 22.6 3 Norte 5 Este 0 -- -- 88
2019-08-30 00:00:00 22.9 0 Calma 9 Norte 0 -- -- 87
2019-08-29 23:00:00 23.2 2 Nordeste 6 Norte 0 -- -- 86
2019-08-29 22:00:00 24.3 5 Nordeste 8 Nordeste 0 -- -- 82
2019-08-29 21:00:00 25.5 2 Sudoeste 12 Sudeste 0 -- -- 78
2019-08-29 20:00:00 27.4 7 Sudeste 21 Este 0 -- -- 62
2019-08-29 19:00:00 29.6 9 Sudeste 23 Este 0 -- -- 52
2019-08-29 18:00:00 31.1 11 Sudeste 22 Este 0 -- -- 47
2019-08-29 17:00:00 31.7 14 Sur 21 Sur 0 -- -- 42
2019-08-29 16:00:00 31.5 13 Sudoeste 23 Sudoeste 0 -- -- 45
2019-08-29 15:00:00 31.1 11 Sudoeste 21 Sudoeste 0 -- -- 44
2019-08-29 14:00:00 30.7 12 Sudoeste 22 Sudoeste 0 -- -- 45
2019-08-29 13:00:00 30 12 Sur 20 Sur 0 -- -- 51
2019-08-29 12:00:00 29.4 9 Sudoeste 16 Sur 0 -- -- 54
2019-08-29 11:00:00 27.6 11 Sur 17 Sur 0 -- -- 65
2019-08-29 10:00:00 26.8 7 Sudoeste 12 Sur 0 -- -- 66
2019-08-29 09:00:00 26.2 0 Calma 4 Este 0 -- -- 81
2019-08-29 08:00:00 19.8 3 Nordeste 8 Este 0 -- -- 91
2019-08-29 07:00:00 18.5 2 Nordeste 6 Este 0 -- -- 91
2019-08-29 06:00:00 18.6 2 Nordeste 9 Este 0 -- -- 90
2019-08-29 05:00:00 19.1 0 Calma 14 Norte 0 -- -- 88
2019-08-29 04:00:00 18.5 3 Norte 5 Norte 0 -- -- 89
2019-08-29 03:00:00 18.3 2 Nordeste 6 Noroeste 0 -- -- 87
2019-08-29 02:00:00 19.1 3 Norte 6 Este 0 -- -- 85
2019-08-29 01:00:00 19.7 4 Este 8 Este 0 -- -- 84
2019-08-29 00:00:00 20.7 2 Nordeste 9 Norte 0 -- -- 81
2019-08-28 23:00:00 21.7 4 Este 11 Nordeste 0 -- -- 77
2019-08-28 22:00:00 23.6 6 Norte 12 Nordeste 0 -- -- 71
2019-08-28 21:00:00 24.5 8 Este 19 Norte 0 -- -- 70
2019-08-28 20:00:00 26.1 12 Norte 22 Norte 0 -- -- 63
2019-08-28 19:00:00 26.9 12 Norte 29 Nordeste 0 -- -- 62
2019-08-28 18:00:00 28.4 15 Norte 31 Norte 0 -- -- 59
2019-08-28 17:00:00 28.9 11 Norte 40 Nordeste 0 -- -- 60
2019-08-28 16:00:00 28.7 18 Noroeste 35 Noroeste 0 -- -- 59
2019-08-28 15:00:00 28.7 18 Noroeste 33 Noroeste 0 -- -- 59
2019-08-28 14:00:00 28.7 14 Norte 37 Nordeste 0 -- -- 60
2019-08-28 13:00:00 28 18 Norte 35 Nordeste 0 -- -- 62
2019-08-28 12:00:00 27.6 19 Noroeste 30 Noroeste 0 -- -- 64
2019-08-28 11:00:00 27.5 12 Noroeste 26 Noroeste 0 -- -- 68
2019-08-28 10:00:00 26.7 10 Norte 24 Norte 0 -- -- 77
2019-08-28 09:00:00 23.8 2 Noroeste 8 Este 0 -- -- 92
2019-08-28 08:00:00 19.2 4 Norte 10 Norte 0 -- -- 95
2019-08-28 07:00:00 18.8 0 Calma 8 Este 0 -- -- 94
2019-08-28 06:00:00 19.1 2 Norte 9 Este 0 -- -- 94
2019-08-28 05:00:00 19.3 4 Norte 9 Norte 0 -- -- 93
2019-08-28 04:00:00 20.3 3 Norte 11 Norte 0 -- -- 92
2019-08-28 03:00:00 19.9 3 Norte 9 Este 0 -- -- 91
2019-08-28 02:00:00 19.5 4 Nordeste 8 Noroeste 0 -- -- 91
2019-08-28 01:00:00 19.7 4 Norte 10 Norte 0 -- -- 90
2019-08-28 00:00:00 20.1 2 Norte 11 Norte 0 -- -- 90
2019-08-27 23:00:00 20 0 Calma 13 Noroeste 0 -- -- 89
2019-08-27 22:00:00 20.3 5 Nordeste 18 Norte 0 -- -- 87
2019-08-27 21:00:00 20.2 9 Norte 22 Norte 1.4 -- -- 83
2019-08-27 20:00:00 23.9 5 Norte 18 Oeste 0 -- -- 66
2019-08-27 19:00:00 25.8 3 Sur 14 Oeste 0 -- -- 63
2019-08-27 18:00:00 28.9 3 Noroeste 25 Norte 0 -- -- 54
2019-08-27 17:00:00 26 11 Nordeste 26 Nordeste 0 -- -- 67
2019-08-27 16:00:00 23.5 7 Nordeste 18 Nordeste 0.2 -- -- 75
2019-08-27 15:00:00 21.6 5 Norte 15 Este 0 -- -- 84
2019-08-27 14:00:00 20.8 10 Nordeste 27 Nordeste 0.2 -- -- 87
2019-08-27 13:00:00 19.6 11 Nordeste 46 Oeste 10.8 -- -- 88
2019-08-27 12:00:00 25.2 8 Norte 21 Nordeste 0 -- -- 75
2019-08-27 11:00:00 25.3 12 Nordeste 24 Nordeste 0 -- -- 76
2019-08-27 10:00:00 25.3 12 Nordeste 23 Este 0 -- -- 77
2019-08-27 09:00:00 25 7 Nordeste 20 Nordeste 0 -- -- 74
2019-08-27 08:00:00 25.4 5 Sudeste 18 Oeste 0 -- -- 66
2019-08-27 07:00:00 25.4 10 Nordeste 23 Este 0 -- -- 69
2019-08-27 06:00:00 23.6 0 Calma 11 Norte 0 -- -- 74
2019-08-27 05:00:00 23.8 6 Norte 17 Nordeste 0 -- -- 79
2019-08-27 04:00:00 24.2 8 Nordeste 19 Nordeste 0 -- -- 79
2019-08-27 03:00:00 24.2 3 Nordeste 10 Noroeste 0 -- -- 78
2019-08-27 02:00:00 24.2 8 Norte 14 Norte 0 -- -- 79
2019-08-27 01:00:00 24.3 5 Nordeste 17 Nordeste 0 -- -- 77
2019-08-27 00:00:00 24.6 8 Nordeste 17 Nordeste 0 -- -- 74
2019-08-26 23:00:00 25 8 Nordeste 16 Nordeste 0 -- -- 72
2019-08-26 22:00:00 24.1 5 Nordeste 9 Nordeste 0 -- -- 77
2019-08-26 21:00:00 25.3 2 Sudeste 9 Oeste 0 -- -- 72
2019-08-26 20:00:00 26.8 6 Sudoeste 13 Sur 0 -- -- 67
2019-08-26 19:00:00 27.9 8 Sudoeste 20 Sudoeste 0 -- -- 63
2019-08-26 18:00:00 28.6 11 Sudoeste 23 Sur 0 -- -- 61
2019-08-26 17:00:00 29.1 13 Sudoeste 27 Sudoeste 0 -- -- 59
2019-08-26 16:00:00 29.7 15 Sudoeste 23 Sur 0 -- -- 59
2019-08-26 15:00:00 29.9 14 Sudoeste 28 Sudoeste 0 -- -- 60
2019-08-26 14:00:00 29.2 18 Sudoeste 29 Oeste 0 -- -- 62
2019-08-26 13:00:00 31.7 11 Sudeste 30 Sur 0 -- -- 47
2019-08-26 12:00:00 30.4 15 Sudeste 28 Sudeste 0 -- -- 51
2019-08-26 11:00:00 29.4 7 Sudeste 19 Este 0 -- -- 57
2019-08-26 10:00:00 27.6 3 Este 10 Este 0 -- -- 66
2019-08-26 09:00:00 25.3 0 Calma 9 Norte 0 -- -- 79
2019-08-26 08:00:00 20.7 3 Nordeste 9 Norte 0 -- -- 90
2019-08-26 07:00:00 18.9 3 Nordeste 6 Este 0 -- -- 91
2019-08-26 06:00:00 19.2 2 Nordeste 5 Norte 0 -- -- 90
2019-08-26 05:00:00 19.5 0 Calma 5 Nordeste 0 -- -- 89
2019-08-26 04:00:00 19.9 3 Norte 5 Este 0 -- -- 88
2019-08-26 03:00:00 20.8 2 Nordeste 6 Este 0 -- -- 86
2019-08-26 02:00:00 20.9 0 Calma 8 Este 0 -- -- 84
2019-08-26 01:00:00 21.4 2 Este 5 Nordeste 0 -- -- 82
2019-08-26 00:00:00 21.9 0 Calma 4 Este 0 -- -- 80
2019-08-25 23:00:00 22.9 0 Calma 5 Norte 0 -- -- 76
2019-08-25 22:00:00 24.1 2 Nordeste 4 Este 0 -- -- 72
2019-08-25 21:00:00 25.9 0 Calma 12 Sudoeste 0 -- -- 67
2019-08-25 20:00:00 27.6 6 Sudoeste 14 Sudoeste 0 -- -- 62
2019-08-25 19:00:00 28.7 9 Sudoeste 17 Sur 0 -- -- 57
2019-08-25 18:00:00 29.4 11 Sudoeste 19 Sudoeste 0 -- -- 57
2019-08-25 17:00:00 29.6 11 Sudoeste 23 Sur 0 -- -- 60
2019-08-25 16:00:00 29.5 14 Sur 26 Sur 0 -- -- 58
2019-08-25 15:00:00 29.7 16 Sudoeste 26 Sudoeste 0 -- -- 56
2019-08-25 14:00:00 30.2 13 Sur 22 Sur 0 -- -- 55
2019-08-25 13:00:00 29.2 12 Sudoeste 23 Sur 0 -- -- 63
2019-08-25 12:00:00 27.8 12 Sudoeste 22 Oeste 0 -- -- 70
2019-08-25 11:00:00 27.3 11 Sudoeste 17 Sudoeste 0 -- -- 69
2019-08-25 10:00:00 27.2 7 Sudoeste 12 Sur 0 -- -- 71
2019-08-25 09:00:00 25.6 2 Sudeste 6 Este 0 -- -- 81
2019-08-25 08:00:00 19.2 2 Noroeste 5 Este 0 -- -- 92
2019-08-25 07:00:00 18.1 0 Calma 3 Este 0 -- -- 92
2019-08-25 06:00:00 18.5 2 Este 6 Este 0 -- -- 91
2019-08-25 05:00:00 19 2 Nordeste 6 Este 0 -- -- 90
2019-08-25 04:00:00 19.7 3 Este 5 Este 0 -- -- 89
2019-08-25 03:00:00 20.3 2 Nordeste 6 Este 0 -- -- 88
2019-08-25 02:00:00 20.5 3 Este 4 Este 0 -- -- 87
2019-08-25 01:00:00 21.1 0 Calma 4 Este 0 -- -- 85
2019-08-25 00:00:00 22 3 Este 4 Este 0 -- -- 82
2019-08-24 23:00:00 23.2 2 Este 4 Nordeste 0 -- -- 78
2019-08-24 22:00:00 24.7 3 Nordeste 5 Este 0 -- -- 73
2019-08-24 21:00:00 26.2 5 Sudeste 11 Sudeste 0 -- -- 68
2019-08-24 20:00:00 28 6 Sudoeste 15 Sudoeste 0 -- -- 59
2019-08-24 19:00:00 28.9 9 Sudoeste 17 Sudoeste 0 -- -- 55
2019-08-24 18:00:00 29.8 11 Sudoeste 21 Sudoeste 0 -- -- 49
2019-08-24 17:00:00 30.2 13 Sudoeste 22 Sudoeste 0 -- -- 50
2019-08-24 16:00:00 30 16 Sudoeste 24 Sur 0 -- -- 51
2019-08-24 15:00:00 30.7 13 Sudoeste 25 Sur 0 -- -- 51
2019-08-24 14:00:00 30.1 14 Sudoeste 25 Sur 0 -- -- 53
2019-08-24 13:00:00 29.5 13 Sudoeste 22 Sur 0 -- -- 58
2019-08-24 12:00:00 28 14 Sudoeste 21 Sudoeste 0 -- -- 66
2019-08-24 11:00:00 27.8 12 Sudoeste 17 Sudoeste 0 -- -- 66
2019-08-24 10:00:00 28.8 3 Sur 9 Sur 0 -- -- 62
2019-08-24 09:00:00 25.9 2 Este 5 Este 0 -- -- 78
2019-08-24 08:00:00 20.2 0 Calma 6 Este 0 -- -- 89
2019-08-24 07:00:00 19.2 3 Este 7 Este 0 -- -- 89
2019-08-24 06:00:00 19.2 3 Nordeste 6 Este 0 -- -- 88
2019-08-24 05:00:00 19.3 2 Este 4 Este 0 -- -- 87
2019-08-24 04:00:00 19.9 2 Este 7 Este 0 -- -- 86
2019-08-24 03:00:00 20.1 2 Este 5 Este 0 -- -- 84
2019-08-24 02:00:00 20.9 3 Norte 8 Este 0 -- -- 82
2019-08-24 01:00:00 21.5 2 Este 5 Este 0 -- -- 81
2019-08-24 00:00:00 21.8 0 Calma 5 Este 0 -- -- 79
2019-08-23 23:00:00 22.7 0 Calma 5 Noroeste 0 -- -- 75
2019-08-23 22:00:00 24.2 2 Norte 6 Sudeste 0 -- -- 71
2019-08-23 21:00:00 25.9 4 Sudeste 14 Sudeste 0 -- -- 67
2019-08-23 20:00:00 28.1 6 Sudeste 16 Sur 0 -- -- 56
2019-08-23 19:00:00 29 13 Sudoeste 18 Sudoeste 0 -- -- 47
2019-08-23 18:00:00 30.2 10 Sudoeste 22 Sudoeste 0 -- -- 46
2019-08-23 17:00:00 30.2 14 Sudoeste 24 Sur 0 -- -- 42
2019-08-23 16:00:00 31.2 13 Sudoeste 21 Sur 0 -- -- 41
2019-08-23 15:00:00 30.8 13 Sudoeste 21 Sur 0 -- -- 45
2019-08-23 14:00:00 29.1 12 Sudoeste 24 Sudoeste 0 -- -- 54
2019-08-23 13:00:00 28.3 14 Sur 23 Sudoeste 0 -- -- 56
2019-08-23 12:00:00 27.4 14 Sudoeste 24 Sudoeste 0 -- -- 58
2019-08-23 11:00:00 28.2 12 Sudoeste 21 Sudoeste 0 -- -- 56
2019-08-23 10:00:00 28.4 8 Nordeste 19 Nordeste 0 -- -- 50
2019-08-23 09:00:00 27.8 3 Este 10 Nordeste 0 -- -- 57
2019-08-23 08:00:00 21.5 3 Sudeste 14 Norte 0 -- -- 66
2019-08-23 07:00:00 16.9 4 Nordeste 8 Este 0 -- -- 73
2019-08-23 06:00:00 17.1 0 Calma 5 Este 0 -- -- 69
2019-08-23 05:00:00 18.8 3 Este 9 Este 0 -- -- 62
2019-08-23 04:00:00 17.5 0 Calma 9 Norte 0 -- -- 61
2019-08-23 03:00:00 17.9 4 Nordeste 8 Noroeste 0 -- -- 56
2019-08-23 02:00:00 18.2 6 Este 11 Este 0 -- -- 53
2019-08-23 01:00:00 18.6 3 Nordeste 12 Noroeste 0 -- -- 54
2019-08-23 00:00:00 20.3 3 Nordeste 10 Norte 0 -- -- 55
2019-08-22 23:00:00 20.8 3 Este 6 Este 0 -- -- 55
2019-08-22 22:00:00 22.9 5 Norte 8 Norte 0 -- -- 50
2019-08-22 21:00:00 26.3 3 Nordeste 17 Sudeste 0 -- -- 44
2019-08-22 20:00:00 29.2 6 Sur 18 Sur 0 -- -- 39
2019-08-22 19:00:00 31.3 8 Sur 16 Sudoeste 0 -- -- 37
2019-08-22 18:00:00 31.4 9 Oeste 23 Sur 0 -- -- 38
2019-08-22 17:00:00 31.4 12 Sudoeste 21 Oeste 0 -- -- 37
2019-08-22 16:00:00 31.6 12 Sudoeste 21 Sudoeste 0 -- -- 38
2019-08-22 15:00:00 30.9 10 Sudoeste 20 Sudoeste 0 -- -- 42
2019-08-22 14:00:00 30.8 11 Sudoeste 26 Sudoeste 0 -- -- 43
2019-08-22 13:00:00 30.6 12 Sudoeste 21 Nordeste 0 -- -- 43
2019-08-22 12:00:00 30 10 Norte 36 Nordeste 0 -- -- 42
2019-08-22 11:00:00 28.9 14 Norte 27 Norte 0 -- -- 45
2019-08-22 10:00:00 27.7 10 Nordeste 22 Norte 0 -- -- 53
2019-08-22 09:00:00 25.8 6 Norte 14 Norte 0 -- -- 67
2019-08-22 08:00:00 18.2 4 Este 9 Este 0 -- -- 79
2019-08-22 07:00:00 16.3 2 Este 6 Este 0 -- -- 78
2019-08-22 06:00:00 17.6 5 Nordeste 9 Este 0 -- -- 76
2019-08-22 05:00:00 17.2 3 Nordeste 11 Nordeste 0 -- -- 77
2019-08-22 04:00:00 17.3 3 Nordeste 6 Este 0 -- -- 77
2019-08-22 03:00:00 18.4 0 Calma 9 Norte 0 -- -- 74
2019-08-22 02:00:00 20.1 5 Nordeste 8 Nordeste 0 -- -- 70
2019-08-22 01:00:00 22.3 6 Nordeste 14 Nordeste 0 -- -- 65
2019-08-22 00:00:00 22.6 5 Norte 13 Nordeste 0 -- -- 64
2019-08-21 23:00:00 23.4 6 Norte 19 Norte 0 -- -- 63
2019-08-21 22:00:00 23.2 5 Norte 8 Norte 0 -- -- 67
2019-08-21 21:00:00 25 3 Este 12 Sur 0 -- -- 63
2019-08-21 20:00:00 27 6 Sur 15 Sudoeste 0 -- -- 58
2019-08-21 19:00:00 28.3 9 Sudoeste 22 Sur 0 -- -- 53
2019-08-21 18:00:00 28 14 Sur 27 Sur 0 -- -- 55
2019-08-21 17:00:00 28.6 16 Sudoeste 28 Sur 0 -- -- 48
2019-08-21 16:00:00 29.8 14 Sudoeste 24 Oeste 0 -- -- 40
2019-08-21 15:00:00 30.3 10 Sudoeste 22 Sudoeste 0 -- -- 43
2019-08-21 14:00:00 28.9 12 Sudoeste 19 Sudoeste 0 -- -- 46
2019-08-21 13:00:00 28.9 11 Sur 21 Sur 0 -- -- 46
2019-08-21 12:00:00 29.3 10 Sudoeste 19 Sudoeste 0 -- -- 44
2019-08-21 11:00:00 28.4 7 Sudeste 18 Sudeste 0 -- -- 44
2019-08-21 10:00:00 27.8 2 Sudeste 7 Sur 0 -- -- 51
2019-08-21 09:00:00 25.4 0 Calma 5 Noroeste 0 -- -- 64
2019-08-21 08:00:00 19.3 0 Calma 8 Este 0 -- -- 83
2019-08-21 07:00:00 17.9 0 Calma 6 Nordeste 0 -- -- 84
2019-08-21 06:00:00 18.4 4 Norte 8 Norte 0 -- -- 82
2019-08-21 05:00:00 19 4 Norte 7 Nordeste 0 -- -- 81
2019-08-21 04:00:00 19.5 0 Calma 6 Noroeste 0 -- -- 79
2019-08-21 03:00:00 20.4 3 Este 5 Norte 0 -- -- 77
2019-08-21 02:00:00 21.4 3 Este 8 Nordeste 0 -- -- 73
2019-08-21 01:00:00 23.3 4 Nordeste 16 Nordeste 0 -- -- 68
2019-08-21 00:00:00 23.9 5 Nordeste 15 Nordeste 0 -- -- 68
2019-08-20 23:00:00 24.2 5 Nordeste 23 Norte 0 -- -- 66
2019-08-20 22:00:00 24.3 8 Nordeste 19 Nordeste 0 -- -- 67
2019-08-20 21:00:00 24.7 7 Nordeste 24 Este 0 -- -- 67
2019-08-20 20:00:00 25.9 10 Nordeste 30 Este 0 -- -- 64
2019-08-20 19:00:00 26.7 14 Este 32 Este 0 -- -- 64
2019-08-20 18:00:00 28 10 Este 27 Este 0 -- -- 62
2019-08-20 17:00:00 29 8 Nordeste 24 Nordeste 0 -- -- 62
2019-08-20 16:00:00 30.3 14 Sudoeste 23 Sudoeste 0 -- -- 62
2019-08-20 15:00:00 29.2 12 Sudoeste 28 Oeste 0 -- -- 66
2019-08-20 14:00:00 29.4 15 Sudoeste 33 Sur 0 -- -- 63
2019-08-20 13:00:00 31.4 12 Oeste 31 Sudoeste 0 -- -- 57
2019-08-20 12:00:00 31.7 9 Sudeste 25 Sudeste 0 -- -- 50
2019-08-20 11:00:00 29.1 11 Este 26 Este 0 -- -- 60
2019-08-20 10:00:00 28.8 10 Este 22 Este 0 -- -- 64
2019-08-20 09:00:00 27.6 9 Nordeste 17 Nordeste 0 -- -- 73
2019-08-20 08:00:00 25.1 5 Nordeste 13 Norte 0 -- -- 83
2019-08-20 07:00:00 24.4 6 Nordeste 15 Nordeste 0 -- -- 85
2019-08-20 06:00:00 23 4 Nordeste 10 Este 0 -- -- 86
2019-08-20 05:00:00 23.8 5 Norte 9 Nordeste 0 -- -- 86
2019-08-20 04:00:00 24.2 4 Norte 12 Nordeste 0 -- -- 85
2019-08-20 03:00:00 24.7 5 Nordeste 15 Nordeste 0 -- -- 84
2019-08-20 02:00:00 25.1 8 Nordeste 16 Nordeste 0 -- -- 83
2019-08-20 01:00:00 25.3 4 Nordeste 17 Este 0 -- -- 83
2019-08-20 00:00:00 26 9 Este 16 Este 0 -- -- 82